createdAt,value
2023-04-04T00:00:22.967Z,1.52
2023-04-04T00:02:50.077Z,1.70
2023-04-04T00:05:17.568Z,1.70
2023-04-04T00:07:47.955Z,1.60
2023-04-04T00:10:15.506Z,1.60
2023-04-04T00:12:43.202Z,2.08
2023-04-04T00:15:10.658Z,1.73
2023-04-04T00:17:37.725Z,2.08
2023-04-04T00:20:05.043Z,1.80
2023-04-04T00:22:32.101Z,1.70
2023-04-04T00:24:59.176Z,1.52
2023-04-04T00:27:26.177Z,1.58
2023-04-04T00:29:53.241Z,1.55
2023-04-04T00:32:20.241Z,1.70
2023-04-04T00:34:47.267Z,2.17
2023-04-04T00:37:14.031Z,2.70
2023-04-04T00:39:40.999Z,2.03
2023-04-04T00:42:08.123Z,2.00
2023-04-04T00:44:36.268Z,2.35
2023-04-04T00:47:04.886Z,2.08
2023-04-04T00:49:31.719Z,1.90
2023-04-04T00:51:59.223Z,2.35
2023-04-04T00:54:26.190Z,2.08
2023-04-04T00:56:55.319Z,1.83
2023-04-04T00:59:28.027Z,2.13
2023-04-04T01:01:55.013Z,2.10
2023-04-04T01:04:22.073Z,2.08
2023-04-04T01:06:49.795Z,2.10
2023-04-04T01:09:16.781Z,2.15
2023-04-04T01:11:44.460Z,2.40
2023-04-04T01:14:11.682Z,2.28
2023-04-04T01:16:39.430Z,2.03
2023-04-04T01:19:11.688Z,2.00
2023-04-04T01:21:39.387Z,2.40
2023-04-04T01:24:08.607Z,2.15
2023-04-04T01:26:35.581Z,2.25
2023-04-04T01:29:02.404Z,2.08
2023-04-04T01:31:38.012Z,2.35
2023-04-04T01:34:21.975Z,2.28
2023-04-04T01:37:07.047Z,2.13
2023-04-04T01:39:48.026Z,2.17
2023-04-04T01:42:15.251Z,2.10
2023-04-04T01:44:42.454Z,2.00
2023-04-04T01:47:09.331Z,2.33
2023-04-04T01:49:36.160Z,2.20
2023-04-04T01:52:04.211Z,2.90
2023-04-04T01:54:32.275Z,2.25
2023-04-04T01:56:59.048Z,2.00
2023-04-04T01:59:26.075Z,2.00
2023-04-04T02:01:53.301Z,2.72
2023-04-04T02:04:20.126Z,2.03
2023-04-04T02:06:47.219Z,2.13
2023-04-04T02:09:14.306Z,2.25
2023-04-04T02:11:41.380Z,2.40
2023-04-04T02:14:08.628Z,2.22
2023-04-04T02:16:35.382Z,2.05
2023-04-04T02:19:02.164Z,2.60
2023-04-04T02:21:28.913Z,2.70
2023-04-04T02:23:55.696Z,1.90
2023-04-04T02:26:22.492Z,2.58
2023-04-04T02:28:49.248Z,2.03
2023-04-04T02:31:16.684Z,2.22
2023-04-04T02:33:43.450Z,1.83
2023-04-04T02:36:10.450Z,2.10
2023-04-04T02:38:37.225Z,2.05
2023-04-04T02:41:03.998Z,2.03
2023-04-04T02:43:30.769Z,2.08
2023-04-04T02:45:57.779Z,2.13
2023-04-04T02:48:25.786Z,2.40
2023-04-04T02:50:52.640Z,2.28
2023-04-04T02:53:19.447Z,2.40
2023-04-04T02:55:46.256Z,1.95
2023-04-04T02:58:13.008Z,2.10
2023-04-04T03:00:40.176Z,2.20
2023-04-04T03:03:07.414Z,2.10
2023-04-04T03:05:34.347Z,2.33
2023-04-04T03:08:01.379Z,2.63
2023-04-04T03:10:32.268Z,2.08
2023-04-04T03:12:59.685Z,2.38
2023-04-04T03:15:27.541Z,1.92
2023-04-04T03:17:54.595Z,2.25
2023-04-04T03:20:21.926Z,2.05
2023-04-04T03:22:49.163Z,2.00
2023-04-04T03:25:16.141Z,2.20
2023-04-04T03:27:42.907Z,2.20
2023-04-04T03:30:10.411Z,2.60
2023-04-04T03:32:39.282Z,2.53
2023-04-04T03:35:07.609Z,2.70
2023-04-04T03:37:34.530Z,2.78
2023-04-04T03:40:01.524Z,3.03
2023-04-04T03:42:28.312Z,3.10
2023-04-04T03:44:55.263Z,3.72
2023-04-04T03:47:22.077Z,3.33
2023-04-04T03:49:51.399Z,3.13
2023-04-04T03:52:18.668Z,3.28
2023-04-04T03:54:46.110Z,3.28
2023-04-04T03:57:12.860Z,3.25
2023-04-04T03:59:39.710Z,2.75
2023-04-04T04:02:06.808Z,2.45
2023-04-04T04:04:33.620Z,2.70
2023-04-04T04:07:02.198Z,2.20
2023-04-04T04:09:28.944Z,3.08
2023-04-04T04:11:56.450Z,2.63
2023-04-04T04:14:23.193Z,2.65
2023-04-04T04:16:50.098Z,3.45
2023-04-04T04:19:17.045Z,2.63
2023-04-04T04:21:43.995Z,3.45
2023-04-04T04:24:10.988Z,2.97
2023-04-04T04:26:37.734Z,2.60
2023-04-04T04:29:04.679Z,2.60
2023-04-04T04:31:31.572Z,2.40
2023-04-04T04:33:58.438Z,2.30
2023-04-04T04:36:25.488Z,2.60
2023-04-04T04:38:52.347Z,2.83
2023-04-04T04:41:19.087Z,2.25
2023-04-04T04:43:45.828Z,3.10
2023-04-04T04:46:13.123Z,2.65
2023-04-04T04:48:39.956Z,2.47
2023-04-04T04:51:06.802Z,2.55
2023-04-04T04:53:33.611Z,2.65
2023-04-04T04:56:00.414Z,2.30
2023-04-04T04:58:28.611Z,2.80
2023-04-04T05:00:59.185Z,2.85
2023-04-04T05:03:26.242Z,2.55
2023-04-04T05:05:53.376Z,2.55
2023-04-04T05:08:20.181Z,3.25
2023-04-04T05:10:46.937Z,2.40
2023-04-04T05:13:14.120Z,2.63
2023-04-04T05:15:41.082Z,2.88
2023-04-04T05:18:07.860Z,2.53
2023-04-04T05:20:35.700Z,2.63
2023-04-04T05:23:02.836Z,2.80
2023-04-04T05:25:29.605Z,2.60
2023-04-04T05:27:57.589Z,2.50
2023-04-04T05:30:24.695Z,2.35
2023-04-04T05:32:52.492Z,2.65
2023-04-04T05:35:19.355Z,2.42
2023-04-04T05:37:46.203Z,2.70
2023-04-04T05:40:13.192Z,3.00
2023-04-04T05:42:39.927Z,2.83
2023-04-04T05:45:07.578Z,2.83
2023-04-04T05:47:34.487Z,2.67
2023-04-04T05:50:01.618Z,3.75
2023-04-04T05:52:28.361Z,2.92
2023-04-04T05:54:55.140Z,2.78
2023-04-04T05:57:23.012Z,2.78
2023-04-04T05:59:51.570Z,2.67
2023-04-04T06:02:18.511Z,2.72
2023-04-04T06:04:45.534Z,2.50
2023-04-04T06:07:12.411Z,2.53
2023-04-04T06:09:39.945Z,2.60
2023-04-04T06:12:09.008Z,2.50
2023-04-04T06:14:36.447Z,2.38
2023-04-04T06:17:04.427Z,2.42
2023-04-04T06:19:31.169Z,2.05
2023-04-04T06:21:57.949Z,2.50
2023-04-04T06:24:24.682Z,2.33
2023-04-04T06:26:52.672Z,2.38
2023-04-04T06:29:19.536Z,2.58
2023-04-04T06:31:46.305Z,2.53
2023-04-04T06:34:13.062Z,2.72
2023-04-04T06:36:39.848Z,1.83
2023-04-04T06:39:06.587Z,2.97
2023-04-04T06:41:33.360Z,2.30
2023-04-04T06:44:00.537Z,2.10
2023-04-04T06:46:27.609Z,1.70
2023-04-04T06:48:54.902Z,1.77
2023-04-04T06:51:21.846Z,1.80
2023-04-04T06:53:49.336Z,2.42
2023-04-04T06:56:16.571Z,1.90
2023-04-04T06:58:43.411Z,1.77
2023-04-04T07:01:10.166Z,1.70
2023-04-04T07:03:37.365Z,1.77
2023-04-04T07:06:04.803Z,1.73
2023-04-04T07:08:36.296Z,1.75
2023-04-04T07:11:04.667Z,1.63
2023-04-04T07:13:31.757Z,2.00
2023-04-04T07:15:58.520Z,1.52
2023-04-04T07:18:25.284Z,1.60
2023-04-04T07:20:52.062Z,1.38
2023-04-04T07:23:18.814Z,1.33
2023-04-04T07:25:46.990Z,1.40
2023-04-04T07:28:13.820Z,1.50
2023-04-04T07:30:41.439Z,1.90
2023-04-04T07:33:08.815Z,1.67
2023-04-04T07:35:35.870Z,1.60
2023-04-04T07:38:03.170Z,1.25
2023-04-04T07:40:30.177Z,1.20
2023-04-04T07:42:56.977Z,1.50
2023-04-04T07:45:23.919Z,1.73
2023-04-04T07:47:51.526Z,1.70
2023-04-04T07:50:19.492Z,1.55
2023-04-04T07:52:52.608Z,1.48
2023-04-04T07:55:20.131Z,1.42
2023-04-04T07:57:47.231Z,1.38
2023-04-04T08:00:14.892Z,1.25
2023-04-04T08:02:44.223Z,1.35
2023-04-04T08:05:11.291Z,1.58
2023-04-04T08:07:38.130Z,1.50
2023-04-04T08:10:06.174Z,1.63
2023-04-04T08:12:33.088Z,1.85
2023-04-04T08:14:59.820Z,1.88
2023-04-04T08:17:26.682Z,1.38
2023-04-04T08:19:53.656Z,1.63
2023-04-04T08:22:20.394Z,2.08
2023-04-04T08:24:47.519Z,1.45
2023-04-04T08:27:15.866Z,1.45
2023-04-04T08:29:42.643Z,1.30
2023-04-04T08:32:09.627Z,1.27
2023-04-04T08:34:36.485Z,1.15
2023-04-04T08:37:03.529Z,1.17
2023-04-04T08:39:30.421Z,1.38
2023-04-04T08:42:05.519Z,1.05
2023-04-04T08:44:34.681Z,1.02
2023-04-04T08:47:09.543Z,0.88
2023-04-04T08:49:41.360Z,0.98
2023-04-04T08:52:11.821Z,1.10
2023-04-04T08:54:40.720Z,0.80
2023-04-04T08:57:08.259Z,0.90
2023-04-04T08:59:35.426Z,0.95
2023-04-04T09:02:11.804Z,1.30
2023-04-04T09:04:40.850Z,0.90
2023-04-04T09:07:08.185Z,0.88
2023-04-04T09:09:37.806Z,0.88
2023-04-04T09:12:05.981Z,0.60
2023-04-04T09:14:37.256Z,0.80
2023-04-04T09:17:04.011Z,0.60
2023-04-04T09:19:31.146Z,1.02
2023-04-04T09:21:58.361Z,0.75
2023-04-04T09:24:37.146Z,0.60
2023-04-04T09:27:04.058Z,0.90
2023-04-04T09:29:30.801Z,0.50
2023-04-04T09:31:57.610Z,0.75
2023-04-04T09:34:24.433Z,1.00
2023-04-04T09:36:51.247Z,0.70
2023-04-04T09:39:20.840Z,1.02
2023-04-04T09:41:48.262Z,0.80
2023-04-04T09:44:16.431Z,0.85
2023-04-04T09:46:43.379Z,1.30
2023-04-04T09:49:21.580Z,0.82
2023-04-04T09:51:51.314Z,1.25
2023-04-04T09:54:29.767Z,0.90
2023-04-04T09:56:57.615Z,1.02
2023-04-04T09:59:24.719Z,1.02
2023-04-04T10:01:54.986Z,0.90
2023-04-04T10:04:21.919Z,0.70
2023-04-04T10:06:48.684Z,0.60
2023-04-04T10:09:16.195Z,0.82
2023-04-04T10:11:43.059Z,0.70
2023-04-04T10:14:09.936Z,0.90
2023-04-04T10:16:37.951Z,0.93
2023-04-04T10:19:07.696Z,0.88
2023-04-04T10:21:34.956Z,0.93
2023-04-04T10:24:08.838Z,0.70
2023-04-04T10:26:37.287Z,0.57
2023-04-04T10:29:06.135Z,0.93
2023-04-04T10:31:39.178Z,0.63
2023-04-04T10:34:38.582Z,1.10
2023-04-04T10:37:13.628Z,0.73
2023-04-04T10:39:53.257Z,1.05
2023-04-04T10:42:20.140Z,0.63
2023-04-04T10:44:47.645Z,0.70
2023-04-04T10:47:23.764Z,0.70
2023-04-04T10:49:53.015Z,0.88
2023-04-04T10:52:24.993Z,0.70
2023-04-04T10:55:00.295Z,0.98
2023-04-04T10:57:30.918Z,0.77
2023-04-04T11:00:09.420Z,0.80
2023-04-04T11:02:46.200Z,1.15
2023-04-04T11:05:26.172Z,1.00
2023-04-04T11:08:08.794Z,0.80
2023-04-04T11:10:43.162Z,1.10
2023-04-04T11:13:22.444Z,0.88
2023-04-04T11:16:03.975Z,1.00
2023-04-04T11:18:43.293Z,1.00
2023-04-04T11:21:27.300Z,0.98
2023-04-04T11:24:13.212Z,0.90
2023-04-04T11:26:42.762Z,1.00
2023-04-04T11:29:14.167Z,1.00
2023-04-04T11:31:45.237Z,1.38
2023-04-04T11:34:19.952Z,1.15
2023-04-04T11:39:30.248Z,0.98
2023-04-04T11:42:03.514Z,0.60
2023-04-04T11:44:33.181Z,0.77
2023-04-04T11:47:11.170Z,0.93
2023-04-04T11:49:43.039Z,0.85
2023-04-04T11:52:16.330Z,1.08
2023-04-04T11:54:46.855Z,0.80
2023-04-04T11:57:19.246Z,0.70
2023-04-04T11:59:50.484Z,0.82
2023-04-04T12:02:32.048Z,0.70
2023-04-04T12:04:59.505Z,0.52
2023-04-04T12:07:26.694Z,1.10
2023-04-04T12:09:54.580Z,1.75
2023-04-04T12:12:22.557Z,0.80
2023-04-04T12:14:49.403Z,0.95
2023-04-04T12:17:16.793Z,0.77
2023-04-04T12:19:44.307Z,0.80
2023-04-04T12:22:11.614Z,0.80
2023-04-04T12:24:38.557Z,0.88
2023-04-04T12:27:06.224Z,0.60
2023-04-04T12:29:36.160Z,1.00
2023-04-04T12:32:04.644Z,0.60
2023-04-04T12:34:33.886Z,0.90
2023-04-04T12:37:02.643Z,1.00
2023-04-04T12:39:30.514Z,0.60
2023-04-04T12:42:03.524Z,1.08
2023-04-04T12:44:33.447Z,0.70
2023-04-04T12:47:05.743Z,0.77
2023-04-04T12:49:44.148Z,0.85
2023-04-04T12:52:22.888Z,0.82
2023-04-04T12:55:06.681Z,0.82
2023-04-04T12:57:35.024Z,0.80
2023-04-04T13:00:04.849Z,0.80
2023-04-04T13:02:31.997Z,0.82
2023-04-04T13:05:00.149Z,0.60
2023-04-04T13:07:30.134Z,0.90
2023-04-04T13:10:03.767Z,1.35
2023-04-04T13:13:00.501Z,0.60
2023-04-04T13:15:52.724Z,0.70
2023-04-04T13:18:24.929Z,0.80
2023-04-04T13:20:53.650Z,0.55
2023-04-04T13:23:22.141Z,0.70
2023-04-04T13:25:48.990Z,0.80
2023-04-04T13:28:16.070Z,0.95
2023-04-04T13:30:49.417Z,0.88
2023-04-04T13:33:18.101Z,1.10
2023-04-04T13:35:46.217Z,1.00
2023-04-04T13:38:12.986Z,0.80
2023-04-04T13:40:40.027Z,0.68
2023-04-04T13:43:06.884Z,1.00
2023-04-04T13:45:35.032Z,0.73
2023-04-04T13:48:02.589Z,0.70
2023-04-04T13:50:31.087Z,0.73
2023-04-04T13:52:57.954Z,0.70
2023-04-04T13:55:24.852Z,1.20
2023-04-04T13:57:52.196Z,0.70
2023-04-04T14:00:19.128Z,0.70
2023-04-04T14:02:46.540Z,0.68
2023-04-04T14:05:13.333Z,0.82
2023-04-04T14:07:40.952Z,1.02
2023-04-04T14:10:10.117Z,0.60
2023-04-04T14:12:37.181Z,0.82
2023-04-04T14:15:05.297Z,0.80
2023-04-04T14:17:32.120Z,0.80
2023-04-04T14:19:58.919Z,1.05
2023-04-04T14:22:25.918Z,0.60
2023-04-04T14:24:52.837Z,0.80
2023-04-04T14:27:19.581Z,0.80
2023-04-04T14:29:46.398Z,0.80
2023-04-04T14:32:13.227Z,0.73
2023-04-04T14:34:39.972Z,1.05
2023-04-04T14:37:07.152Z,0.90
2023-04-04T14:39:33.910Z,0.93
2023-04-04T14:42:00.822Z,0.75
2023-04-04T14:44:28.194Z,0.82
2023-04-04T14:46:55.037Z,0.77
2023-04-04T14:49:21.838Z,1.10
2023-04-04T14:51:48.657Z,1.10
2023-04-04T14:54:15.451Z,0.90
2023-04-04T14:56:42.978Z,0.90
2023-04-04T14:59:09.879Z,0.88
2023-04-04T15:01:37.120Z,0.80
2023-04-04T15:04:03.978Z,0.77
2023-04-04T15:06:36.299Z,0.93
2023-04-04T15:09:06.104Z,0.82
2023-04-04T15:11:32.964Z,1.40
2023-04-04T15:13:59.731Z,0.80
2023-04-04T15:16:29.725Z,0.70
2023-04-04T15:18:56.516Z,0.70
2023-04-04T15:21:23.280Z,0.93
2023-04-04T15:23:50.081Z,0.95
2023-04-04T15:26:16.836Z,0.82
2023-04-04T15:28:43.630Z,0.80
2023-04-04T15:31:13.868Z,0.80
2023-04-04T15:33:41.187Z,0.80
2023-04-04T15:36:08.018Z,0.93
2023-04-04T15:38:34.782Z,0.93
2023-04-04T15:41:01.576Z,0.80
2023-04-04T15:43:28.394Z,0.80
2023-04-04T15:45:55.183Z,0.95
2023-04-04T15:48:22.319Z,0.82
2023-04-04T15:50:49.095Z,0.75
2023-04-04T15:53:15.875Z,0.70
2023-04-04T15:55:43.800Z,0.90
2023-04-04T15:58:10.768Z,0.55
2023-04-04T16:00:37.647Z,0.68
2023-04-04T16:03:04.729Z,1.10
2023-04-04T16:05:31.570Z,1.30
2023-04-04T16:07:58.445Z,0.73
2023-04-04T16:10:25.186Z,1.00
2023-04-04T16:12:51.934Z,0.80
2023-04-04T16:15:19.234Z,0.80
2023-04-04T16:17:46.957Z,1.05
2023-04-04T16:20:13.876Z,2.00
2023-04-04T16:22:40.729Z,1.48
2023-04-04T16:25:08.857Z,1.08
2023-04-04T16:27:36.716Z,1.10
2023-04-04T16:30:04.037Z,0.77
2023-04-04T16:32:31.687Z,1.20
2023-04-04T16:34:58.616Z,0.98
2023-04-04T16:37:25.579Z,0.75
2023-04-04T16:39:52.361Z,0.85
2023-04-04T16:42:19.347Z,0.82
2023-04-04T16:44:47.277Z,1.10
2023-04-04T16:47:14.098Z,0.50
2023-04-04T16:49:41.513Z,1.10
2023-04-04T16:52:10.574Z,0.88
2023-04-04T16:54:37.980Z,0.50
2023-04-04T16:57:04.748Z,0.85
2023-04-04T16:59:31.499Z,0.90
2023-04-04T17:01:58.290Z,0.82
2023-04-04T17:04:25.201Z,0.90
2023-04-04T17:06:51.968Z,1.70
2023-04-04T17:09:18.752Z,1.08
2023-04-04T17:11:46.825Z,0.90
2023-04-04T17:14:14.108Z,1.38
2023-04-04T17:16:41.117Z,0.90
2023-04-04T17:19:07.957Z,1.10
2023-04-04T17:21:34.956Z,0.80
2023-04-04T17:24:01.768Z,0.98
2023-04-04T17:26:28.539Z,1.08
2023-04-04T17:28:55.443Z,1.00
2023-04-04T17:31:22.232Z,1.30
2023-04-04T17:33:49.237Z,1.20
2023-04-04T17:36:16.076Z,1.02
2023-04-04T17:38:42.983Z,0.90
2023-04-04T17:41:09.717Z,0.90
2023-04-04T17:43:36.452Z,1.05
2023-04-04T17:46:06.350Z,1.58
2023-04-04T17:48:36.632Z,1.80
2023-04-04T17:51:06.928Z,0.90
2023-04-04T17:53:35.017Z,1.52
2023-04-04T17:56:01.872Z,1.70
2023-04-04T17:58:28.632Z,1.80
2023-04-04T18:00:57.384Z,1.73
2023-04-04T18:03:24.317Z,1.20
2023-04-04T18:05:52.630Z,1.35
2023-04-04T18:08:19.419Z,1.10
2023-04-04T18:10:46.289Z,1.20
2023-04-04T18:13:13.120Z,1.35
2023-04-04T18:15:40.151Z,1.27
2023-04-04T18:18:07.968Z,1.27
2023-04-04T18:20:36.679Z,1.50
2023-04-04T18:23:04.278Z,1.13
2023-04-04T18:25:32.544Z,1.33
2023-04-04T18:28:00.130Z,1.35
2023-04-04T18:30:27.853Z,1.27
2023-04-04T18:32:56.880Z,1.40
2023-04-04T18:35:24.047Z,1.08
2023-04-04T18:37:50.854Z,1.25
2023-04-04T18:40:17.736Z,1.10
2023-04-04T18:42:45.012Z,1.30
2023-04-04T18:45:12.214Z,1.02
2023-04-04T18:47:42.608Z,0.85
2023-04-04T18:50:11.625Z,1.23
2023-04-04T18:52:38.470Z,1.45
2023-04-04T18:55:05.717Z,1.42
2023-04-04T18:57:34.284Z,1.30
2023-04-04T19:00:01.391Z,1.05
2023-04-04T19:02:28.217Z,1.60
2023-04-04T19:04:55.385Z,1.50
2023-04-04T19:07:26.494Z,1.40
2023-04-04T19:09:53.763Z,1.80
2023-04-04T19:12:20.752Z,1.80
2023-04-04T19:14:47.544Z,2.13
2023-04-04T19:17:15.578Z,2.10
2023-04-04T19:19:43.261Z,2.78
2023-04-04T19:22:10.518Z,3.25
2023-04-04T19:24:40.325Z,3.13
2023-04-04T19:27:07.662Z,3.25
2023-04-04T19:29:35.923Z,3.40
2023-04-04T19:32:12.174Z,3.05
2023-04-04T19:34:38.960Z,2.95
2023-04-04T19:37:07.032Z,2.50
2023-04-04T19:39:36.619Z,2.50
2023-04-04T19:42:05.589Z,1.85
2023-04-04T19:44:32.482Z,2.17
2023-04-04T19:47:00.944Z,2.45
2023-04-04T19:49:33.320Z,2.13
2023-04-04T19:52:04.318Z,2.08
2023-04-04T19:54:42.407Z,2.20
2023-04-04T19:57:19.587Z,1.80
2023-04-04T20:00:03.677Z,2.38
2023-04-04T20:02:30.448Z,2.28
2023-04-04T20:04:57.355Z,2.40
2023-04-04T20:07:25.011Z,2.60
2023-04-04T20:09:52.615Z,2.33
2023-04-04T20:12:24.142Z,2.03
2023-04-04T20:14:51.559Z,1.92
2023-04-04T20:17:18.743Z,2.00
2023-04-04T20:19:45.576Z,2.05
2023-04-04T20:22:13.213Z,1.75
2023-04-04T20:24:42.262Z,2.60
2023-04-04T20:27:10.372Z,2.03
2023-04-04T20:29:37.550Z,2.22
2023-04-04T20:32:08.535Z,1.92
2023-04-04T20:34:50.080Z,1.88
2023-04-04T20:37:26.189Z,1.80
2023-04-04T20:40:12.161Z,2.00
2023-04-04T20:42:40.665Z,1.70
2023-04-04T20:45:10.959Z,2.28
2023-04-04T20:47:46.200Z,1.70
2023-04-04T20:50:41.951Z,2.13
2023-04-04T20:53:09.551Z,1.92
2023-04-04T20:55:36.314Z,2.10
2023-04-04T20:58:09.381Z,2.05
2023-04-04T21:00:41.271Z,2.42
2023-04-04T21:03:32.079Z,2.20
2023-04-04T21:06:12.833Z,1.98
2023-04-04T21:08:57.766Z,2.50
2023-04-04T21:11:29.003Z,2.42
2023-04-04T21:13:56.844Z,2.55
2023-04-04T21:16:27.398Z,2.22
2023-04-04T21:19:00.303Z,2.20
2023-04-04T21:21:28.095Z,2.10
2023-04-04T21:24:00.175Z,2.47
2023-04-04T21:26:32.777Z,2.08
2023-04-04T21:29:21.145Z,2.13
2023-04-04T21:31:50.399Z,2.40
2023-04-04T21:34:25.474Z,2.42
2023-04-04T21:37:01.420Z,2.67
2023-04-04T21:39:29.744Z,2.58
2023-04-04T21:42:06.056Z,2.80
2023-04-04T21:44:34.850Z,2.30
2023-04-04T21:47:01.626Z,2.97
2023-04-04T21:49:28.658Z,2.70
2023-04-04T21:51:55.614Z,2.53
2023-04-04T21:54:22.972Z,2.53
2023-04-04T21:56:49.712Z,2.47
2023-04-04T21:59:16.552Z,2.90
2023-04-04T22:01:43.489Z,3.67
2023-04-04T22:04:10.299Z,7.30
2023-04-04T22:06:37.113Z,9.70
2023-04-04T22:09:05.508Z,9.98
2023-04-04T22:11:34.251Z,8.60
2023-04-04T22:14:03.988Z,9.68
2023-04-04T22:16:31.970Z,13.25
2023-04-04T22:19:01.371Z,12.93
2023-04-04T22:21:28.543Z,10.95
2023-04-04T22:24:02.189Z,7.28
2023-04-04T22:26:31.978Z,6.65
2023-04-04T22:29:03.736Z,7.60
2023-04-04T22:31:34.079Z,6.57
2023-04-04T22:34:02.850Z,6.53
2023-04-04T22:36:29.658Z,5.88
2023-04-04T22:38:57.878Z,4.63
2023-04-04T22:41:30.138Z,4.20
2023-04-04T22:43:57.812Z,4.20
2023-04-04T22:46:29.984Z,4.40
2023-04-04T22:49:05.394Z,5.07
2023-04-04T22:51:34.770Z,4.47
2023-04-04T22:54:02.661Z,4.80
2023-04-04T22:56:29.484Z,4.30
2023-04-04T22:58:56.297Z,4.57
2023-04-04T23:01:23.109Z,4.28
2023-04-04T23:03:49.943Z,4.65
2023-04-04T23:06:16.719Z,4.43
2023-04-04T23:08:46.911Z,3.25
2023-04-04T23:11:13.703Z,3.53
2023-04-04T23:13:42.258Z,3.00
2023-04-04T23:16:09.081Z,3.30
2023-04-04T23:18:36.067Z,2.60
2023-04-04T23:21:03.633Z,2.70
2023-04-04T23:23:30.454Z,2.97
2023-04-04T23:25:58.249Z,2.53
2023-04-04T23:28:26.518Z,2.50
2023-04-04T23:30:54.572Z,2.97
2023-04-04T23:33:21.343Z,2.80
2023-04-04T23:35:48.156Z,3.10
2023-04-04T23:38:14.932Z,2.80
2023-04-04T23:40:41.889Z,2.95
2023-04-04T23:43:08.830Z,2.45
2023-04-04T23:45:39.567Z,3.47
2023-04-04T23:48:06.621Z,4.13
2023-04-04T23:50:33.471Z,4.10
2023-04-04T23:53:00.301Z,3.92
2023-04-04T23:55:27.279Z,3.78
2023-04-04T23:58:00.623Z,3.83
